sensor_id;sensor_type;location;lat;lon;timestamp;P1;durP1;ratioP1;P2;durP2;ratioP2
11679;SDS011;5896;42.686;23.142;2024-03-02T00:02:13;27.85;;;11.38;;
11679;SDS011;5896;42.686;23.142;2024-03-02T00:04:39;25.48;;;10.68;;
11679;SDS011;5896;42.686;23.142;2024-03-02T00:07:04;25.70;;;10.45;;
11679;SDS011;5896;42.686;23.142;2024-03-02T00:09:31;29.50;;;10.90;;
11679;SDS011;5896;42.686;23.142;2024-03-02T00:11:57;26.17;;;9.73;;
11679;SDS011;5896;42.686;23.142;2024-03-02T00:14:24;26.83;;;10.68;;
11679;SDS011;5896;42.686;23.142;2024-03-02T00:16:50;25.23;;;9.73;;
11679;SDS011;5896;42.686;23.142;2024-03-02T00:19:16;26.10;;;9.70;;
11679;SDS011;5896;42.686;23.142;2024-03-02T00:21:42;33.80;;;10.40;;
11679;SDS011;5896;42.686;23.142;2024-03-02T00:24:21;27.92;;;11.30;;
11679;SDS011;5896;42.686;23.142;2024-03-02T00:26:57;29.13;;;9.93;;
11679;SDS011;5896;42.686;23.142;2024-03-02T00:29:22;17.98;;;8.70;;
11679;SDS011;5896;42.686;23.142;2024-03-02T00:31:47;29.83;;;10.77;;
11679;SDS011;5896;42.686;23.142;2024-03-02T00:34:13;28.70;;;11.18;;
11679;SDS011;5896;42.686;23.142;2024-03-02T00:36:41;28.25;;;10.27;;
11679;SDS011;5896;42.686;23.142;2024-03-02T00:39:07;27.52;;;10.88;;
11679;SDS011;5896;42.686;23.142;2024-03-02T00:41:33;34.65;;;11.00;;
11679;SDS011;5896;42.686;23.142;2024-03-02T00:44:02;29.73;;;10.65;;
11679;SDS011;5896;42.686;23.142;2024-03-02T00:46:33;28.48;;;10.63;;
11679;SDS011;5896;42.686;23.142;2024-03-02T00:49:17;29.17;;;10.35;;
11679;SDS011;5896;42.686;23.142;2024-03-02T00:51:46;22.70;;;9.13;;
11679;SDS011;5896;42.686;23.142;2024-03-02T00:54:14;25.17;;;10.40;;
11679;SDS011;5896;42.686;23.142;2024-03-02T00:56:40;26.92;;;10.13;;
11679;SDS011;5896;42.686;23.142;2024-03-02T00:59:06;30.55;;;12.15;;
11679;SDS011;5896;42.686;23.142;2024-03-02T01:01:33;25.73;;;10.65;;
11679;SDS011;5896;42.686;23.142;2024-03-02T01:03:59;29.27;;;10.32;;
11679;SDS011;5896;42.686;23.142;2024-03-02T01:06:25;22.70;;;9.82;;
11679;SDS011;5896;42.686;23.142;2024-03-02T01:08:50;27.58;;;11.60;;
11679;SDS011;5896;42.686;23.142;2024-03-02T01:11:16;28.95;;;11.23;;
11679;SDS011;5896;42.686;23.142;2024-03-02T01:13:42;30.13;;;11.40;;
11679;SDS011;5896;42.686;23.142;2024-03-02T01:16:08;28.20;;;11.80;;
11679;SDS011;5896;42.686;23.142;2024-03-02T01:18:33;35.75;;;12.63;;
11679;SDS011;5896;42.686;23.142;2024-03-02T01:20:58;34.47;;;12.73;;
11679;SDS011;5896;42.686;23.142;2024-03-02T01:23:24;38.17;;;14.23;;
11679;SDS011;5896;42.686;23.142;2024-03-02T01:25:50;36.38;;;12.80;;
11679;SDS011;5896;42.686;23.142;2024-03-02T01:28:17;30.55;;;11.25;;
11679;SDS011;5896;42.686;23.142;2024-03-02T01:30:43;34.22;;;11.38;;
11679;SDS011;5896;42.686;23.142;2024-03-02T01:33:09;30.75;;;11.98;;
11679;SDS011;5896;42.686;23.142;2024-03-02T01:35:34;36.72;;;12.50;;
11679;SDS011;5896;42.686;23.142;2024-03-02T01:38:00;37.60;;;12.75;;
11679;SDS011;5896;42.686;23.142;2024-03-02T01:40:26;31.70;;;12.85;;
11679;SDS011;5896;42.686;23.142;2024-03-02T01:42:52;29.85;;;12.27;;
11679;SDS011;5896;42.686;23.142;2024-03-02T01:45:23;32.70;;;11.27;;
11679;SDS011;5896;42.686;23.142;2024-03-02T01:47:49;29.65;;;11.13;;
11679;SDS011;5896;42.686;23.142;2024-03-02T01:50:14;31.23;;;12.68;;
11679;SDS011;5896;42.686;23.142;2024-03-02T01:52:40;34.70;;;12.38;;
11679;SDS011;5896;42.686;23.142;2024-03-02T01:55:15;35.30;;;12.93;;
11679;SDS011;5896;42.686;23.142;2024-03-02T01:57:40;36.45;;;12.20;;
11679;SDS011;5896;42.686;23.142;2024-03-02T02:00:06;38.42;;;13.35;;
11679;SDS011;5896;42.686;23.142;2024-03-02T02:02:32;39.42;;;13.32;;
11679;SDS011;5896;42.686;23.142;2024-03-02T02:04:59;39.58;;;14.15;;
11679;SDS011;5896;42.686;23.142;2024-03-02T02:07:24;45.45;;;14.80;;
11679;SDS011;5896;42.686;23.142;2024-03-02T02:09:50;36.47;;;13.18;;
11679;SDS011;5896;42.686;23.142;2024-03-02T02:12:16;34.17;;;13.40;;
11679;SDS011;5896;42.686;23.142;2024-03-02T02:14:46;36.40;;;14.43;;
11679;SDS011;5896;42.686;23.142;2024-03-02T02:17:13;35.47;;;12.93;;
11679;SDS011;5896;42.686;23.142;2024-03-02T02:19:40;33.85;;;12.27;;
11679;SDS011;5896;42.686;23.142;2024-03-02T02:22:06;29.90;;;13.20;;
11679;SDS011;5896;42.686;23.142;2024-03-02T02:24:31;35.58;;;13.98;;
11679;SDS011;5896;42.686;23.142;2024-03-02T02:26:56;34.25;;;13.57;;
11679;SDS011;5896;42.686;23.142;2024-03-02T02:29:22;40.78;;;14.40;;
11679;SDS011;5896;42.686;23.142;2024-03-02T02:31:47;40.88;;;13.52;;
11679;SDS011;5896;42.686;23.142;2024-03-02T02:34:13;38.00;;;13.50;;
11679;SDS011;5896;42.686;23.142;2024-03-02T02:36:39;39.45;;;14.40;;
11679;SDS011;5896;42.686;23.142;2024-03-02T02:39:05;44.90;;;14.95;;
11679;SDS011;5896;42.686;23.142;2024-03-02T02:41:33;39.67;;;13.70;;
11679;SDS011;5896;42.686;23.142;2024-03-02T02:43:59;44.40;;;14.02;;
11679;SDS011;5896;42.686;23.142;2024-03-02T02:46:24;32.47;;;13.27;;
11679;SDS011;5896;42.686;23.142;2024-03-02T02:48:49;35.20;;;14.35;;
11679;SDS011;5896;42.686;23.142;2024-03-02T02:51:16;40.65;;;13.75;;
11679;SDS011;5896;42.686;23.142;2024-03-02T02:53:42;38.42;;;13.02;;
11679;SDS011;5896;42.686;23.142;2024-03-02T02:56:07;39.38;;;13.35;;
11679;SDS011;5896;42.686;23.142;2024-03-02T02:58:33;39.28;;;15.07;;
11679;SDS011;5896;42.686;23.142;2024-03-02T03:00:58;44.35;;;14.30;;
11679;SDS011;5896;42.686;23.142;2024-03-02T03:03:23;45.25;;;15.82;;
11679;SDS011;5896;42.686;23.142;2024-03-02T03:05:49;41.55;;;13.68;;
11679;SDS011;5896;42.686;23.142;2024-03-02T03:08:14;41.15;;;14.13;;
11679;SDS011;5896;42.686;23.142;2024-03-02T03:10:41;38.92;;;13.60;;
11679;SDS011;5896;42.686;23.142;2024-03-02T03:13:06;33.47;;;12.63;;
11679;SDS011;5896;42.686;23.142;2024-03-02T03:15:34;36.90;;;13.15;;
11679;SDS011;5896;42.686;23.142;2024-03-02T03:18:01;32.78;;;13.63;;
11679;SDS011;5896;42.686;23.142;2024-03-02T03:20:28;34.35;;;12.40;;
11679;SDS011;5896;42.686;23.142;2024-03-02T03:22:54;43.03;;;14.48;;
11679;SDS011;5896;42.686;23.142;2024-03-02T03:25:19;37.90;;;15.90;;
11679;SDS011;5896;42.686;23.142;2024-03-02T03:27:45;35.83;;;13.90;;
11679;SDS011;5896;42.686;23.142;2024-03-02T03:30:11;39.03;;;13.63;;
11679;SDS011;5896;42.686;23.142;2024-03-02T03:32:36;47.72;;;15.95;;
11679;SDS011;5896;42.686;23.142;2024-03-02T03:35:02;42.50;;;16.15;;
11679;SDS011;5896;42.686;23.142;2024-03-02T03:37:28;40.60;;;14.20;;
11679;SDS011;5896;42.686;23.142;2024-03-02T03:39:57;41.50;;;14.00;;
11679;SDS011;5896;42.686;23.142;2024-03-02T03:42:24;45.28;;;15.10;;
11679;SDS011;5896;42.686;23.142;2024-03-02T03:44:49;44.60;;;14.30;;
11679;SDS011;5896;42.686;23.142;2024-03-02T03:47:15;45.63;;;14.63;;
11679;SDS011;5896;42.686;23.142;2024-03-02T03:49:40;49.83;;;15.13;;
11679;SDS011;5896;42.686;23.142;2024-03-02T03:52:06;38.97;;;14.63;;
11679;SDS011;5896;42.686;23.142;2024-03-02T03:54:31;45.63;;;15.60;;
11679;SDS011;5896;42.686;23.142;2024-03-02T03:56:56;43.20;;;13.68;;
11679;SDS011;5896;42.686;23.142;2024-03-02T03:59:22;38.78;;;13.10;;
11679;SDS011;5896;42.686;23.142;2024-03-02T04:01:47;43.97;;;13.48;;
11679;SDS011;5896;42.686;23.142;2024-03-02T04:04:12;50.38;;;14.68;;
11679;SDS011;5896;42.686;23.142;2024-03-02T04:06:38;47.72;;;16.67;;
11679;SDS011;5896;42.686;23.142;2024-03-02T04:09:03;43.25;;;14.60;;
11679;SDS011;5896;42.686;23.142;2024-03-02T04:11:29;48.40;;;15.80;;
11679;SDS011;5896;42.686;23.142;2024-03-02T04:13:55;55.13;;;16.13;;
11679;SDS011;5896;42.686;23.142;2024-03-02T04:16:20;47.88;;;15.45;;
11679;SDS011;5896;42.686;23.142;2024-03-02T04:18:46;44.63;;;14.07;;
11679;SDS011;5896;42.686;23.142;2024-03-02T04:21:12;49.83;;;14.25;;
11679;SDS011;5896;42.686;23.142;2024-03-02T04:23:37;53.22;;;16.02;;
11679;SDS011;5896;42.686;23.142;2024-03-02T04:26:03;45.08;;;14.77;;
11679;SDS011;5896;42.686;23.142;2024-03-02T04:28:29;51.60;;;14.80;;
11679;SDS011;5896;42.686;23.142;2024-03-02T04:30:54;46.67;;;14.75;;
11679;SDS011;5896;42.686;23.142;2024-03-02T04:33:20;43.92;;;15.27;;
11679;SDS011;5896;42.686;23.142;2024-03-02T04:35:45;43.17;;;16.00;;
11679;SDS011;5896;42.686;23.142;2024-03-02T04:38:11;41.47;;;15.35;;
11679;SDS011;5896;42.686;23.142;2024-03-02T04:40:36;38.78;;;12.95;;
11679;SDS011;5896;42.686;23.142;2024-03-02T04:43:02;40.45;;;13.15;;
11679;SDS011;5896;42.686;23.142;2024-03-02T04:45:28;41.58;;;13.57;;
11679;SDS011;5896;42.686;23.142;2024-03-02T04:47:54;38.33;;;14.98;;
11679;SDS011;5896;42.686;23.142;2024-03-02T04:50:19;51.88;;;15.82;;
11679;SDS011;5896;42.686;23.142;2024-03-02T04:52:44;45.10;;;16.25;;
11679;SDS011;5896;42.686;23.142;2024-03-02T04:55:10;43.38;;;14.50;;
11679;SDS011;5896;42.686;23.142;2024-03-02T04:57:50;44.05;;;15.45;;
11679;SDS011;5896;42.686;23.142;2024-03-02T05:00:16;37.70;;;13.95;;
11679;SDS011;5896;42.686;23.142;2024-03-02T05:02:42;39.75;;;12.52;;
11679;SDS011;5896;42.686;23.142;2024-03-02T05:05:07;38.25;;;12.15;;
11679;SDS011;5896;42.686;23.142;2024-03-02T05:07:33;37.50;;;12.07;;
11679;SDS011;5896;42.686;23.142;2024-03-02T05:09:58;47.80;;;13.45;;
11679;SDS011;5896;42.686;23.142;2024-03-02T05:12:24;40.03;;;13.68;;
11679;SDS011;5896;42.686;23.142;2024-03-02T05:17:37;31.83;;;12.57;;
11679;SDS011;5896;42.686;23.142;2024-03-02T05:20:03;34.95;;;13.05;;
11679;SDS011;5896;42.686;23.142;2024-03-02T05:22:35;40.67;;;14.23;;
11679;SDS011;5896;42.686;23.142;2024-03-02T05:25:01;40.83;;;13.60;;
11679;SDS011;5896;42.686;23.142;2024-03-02T05:27:27;42.05;;;14.48;;
11679;SDS011;5896;42.686;23.142;2024-03-02T05:29:52;37.25;;;14.00;;
11679;SDS011;5896;42.686;23.142;2024-03-02T05:32:18;39.50;;;13.50;;
11679;SDS011;5896;42.686;23.142;2024-03-02T05:34:43;34.60;;;13.77;;
11679;SDS011;5896;42.686;23.142;2024-03-02T05:37:09;37.90;;;13.18;;
11679;SDS011;5896;42.686;23.142;2024-03-02T05:39:34;41.20;;;13.70;;
11679;SDS011;5896;42.686;23.142;2024-03-02T05:41:59;38.13;;;12.75;;
11679;SDS011;5896;42.686;23.142;2024-03-02T05:44:25;40.00;;;14.73;;
11679;SDS011;5896;42.686;23.142;2024-03-02T05:46:50;40.35;;;11.95;;
11679;SDS011;5896;42.686;23.142;2024-03-02T05:49:15;34.42;;;12.75;;
11679;SDS011;5896;42.686;23.142;2024-03-02T05:51:41;40.25;;;13.38;;
11679;SDS011;5896;42.686;23.142;2024-03-02T05:54:06;33.92;;;13.02;;
11679;SDS011;5896;42.686;23.142;2024-03-02T05:56:32;36.78;;;13.32;;
11679;SDS011;5896;42.686;23.142;2024-03-02T05:58:57;39.25;;;13.30;;
11679;SDS011;5896;42.686;23.142;2024-03-02T06:01:37;35.10;;;11.90;;
11679;SDS011;5896;42.686;23.142;2024-03-02T06:04:03;35.65;;;11.75;;
11679;SDS011;5896;42.686;23.142;2024-03-02T06:06:28;40.15;;;14.13;;
11679;SDS011;5896;42.686;23.142;2024-03-02T06:08:54;48.70;;;17.55;;
11679;SDS011;5896;42.686;23.142;2024-03-02T06:11:20;36.00;;;13.65;;
11679;SDS011;5896;42.686;23.142;2024-03-02T06:13:45;33.63;;;13.77;;
11679;SDS011;5896;42.686;23.142;2024-03-02T06:16:11;28.48;;;11.65;;
11679;SDS011;5896;42.686;23.142;2024-03-02T06:18:36;30.50;;;11.38;;
11679;SDS011;5896;42.686;23.142;2024-03-02T06:21:02;32.03;;;11.18;;
11679;SDS011;5896;42.686;23.142;2024-03-02T06:23:28;33.08;;;11.93;;
11679;SDS011;5896;42.686;23.142;2024-03-02T06:25:53;30.90;;;11.57;;
11679;SDS011;5896;42.686;23.142;2024-03-02T06:28:19;34.65;;;11.70;;
11679;SDS011;5896;42.686;23.142;2024-03-02T06:30:45;30.77;;;11.35;;
11679;SDS011;5896;42.686;23.142;2024-03-02T06:33:11;29.25;;;11.13;;
11679;SDS011;5896;42.686;23.142;2024-03-02T06:35:36;29.63;;;11.23;;
11679;SDS011;5896;42.686;23.142;2024-03-02T06:38:02;26.67;;;11.50;;
11679;SDS011;5896;42.686;23.142;2024-03-02T06:40:27;35.55;;;11.60;;
11679;SDS011;5896;42.686;23.142;2024-03-02T06:42:53;29.83;;;10.63;;
11679;SDS011;5896;42.686;23.142;2024-03-02T06:45:18;27.40;;;10.00;;
11679;SDS011;5896;42.686;23.142;2024-03-02T06:47:44;24.90;;;10.00;;
11679;SDS011;5896;42.686;23.142;2024-03-02T06:50:09;28.55;;;10.88;;
11679;SDS011;5896;42.686;23.142;2024-03-02T06:52:35;31.33;;;10.27;;
11679;SDS011;5896;42.686;23.142;2024-03-02T06:55:01;23.83;;;9.15;;
11679;SDS011;5896;42.686;23.142;2024-03-02T06:57:26;28.90;;;10.32;;
11679;SDS011;5896;42.686;23.142;2024-03-02T06:59:51;33.15;;;10.88;;
11679;SDS011;5896;42.686;23.142;2024-03-02T07:02:19;32.58;;;11.32;;
11679;SDS011;5896;42.686;23.142;2024-03-02T07:04:45;29.52;;;11.07;;
11679;SDS011;5896;42.686;23.142;2024-03-02T07:07:11;30.52;;;11.27;;
11679;SDS011;5896;42.686;23.142;2024-03-02T07:09:37;32.90;;;12.05;;
11679;SDS011;5896;42.686;23.142;2024-03-02T07:12:02;35.63;;;11.38;;
11679;SDS011;5896;42.686;23.142;2024-03-02T07:14:28;39.50;;;12.40;;
11679;SDS011;5896;42.686;23.142;2024-03-02T07:17:14;39.92;;;13.00;;
11679;SDS011;5896;42.686;23.142;2024-03-02T07:19:39;36.42;;;11.90;;
11679;SDS011;5896;42.686;23.142;2024-03-02T07:22:07;31.42;;;11.60;;
11679;SDS011;5896;42.686;23.142;2024-03-02T07:24:42;35.95;;;12.25;;
11679;SDS011;5896;42.686;23.142;2024-03-02T07:27:11;37.78;;;13.80;;
11679;SDS011;5896;42.686;23.142;2024-03-02T07:29:38;39.30;;;13.10;;
11679;SDS011;5896;42.686;23.142;2024-03-02T07:32:05;37.92;;;12.15;;
11679;SDS011;5896;42.686;23.142;2024-03-02T07:34:31;32.40;;;12.35;;
11679;SDS011;5896;42.686;23.142;2024-03-02T07:36:56;33.50;;;11.63;;
11679;SDS011;5896;42.686;23.142;2024-03-02T07:39:22;38.20;;;12.50;;
11679;SDS011;5896;42.686;23.142;2024-03-02T07:41:47;40.72;;;12.80;;
11679;SDS011;5896;42.686;23.142;2024-03-02T07:44:13;37.47;;;13.63;;
11679;SDS011;5896;42.686;23.142;2024-03-02T07:46:42;38.63;;;13.50;;
11679;SDS011;5896;42.686;23.142;2024-03-02T07:49:08;40.13;;;14.05;;
11679;SDS011;5896;42.686;23.142;2024-03-02T07:51:34;38.13;;;13.73;;
11679;SDS011;5896;42.686;23.142;2024-03-02T07:54:00;39.20;;;12.20;;
11679;SDS011;5896;42.686;23.142;2024-03-02T07:56:25;31.45;;;11.80;;
11679;SDS011;5896;42.686;23.142;2024-03-02T07:58:51;30.77;;;11.85;;
11679;SDS011;5896;42.686;23.142;2024-03-02T08:01:17;39.47;;;13.30;;
11679;SDS011;5896;42.686;23.142;2024-03-02T08:03:42;32.70;;;11.07;;
11679;SDS011;5896;42.686;23.142;2024-03-02T08:06:13;32.35;;;12.55;;
11679;SDS011;5896;42.686;23.142;2024-03-02T08:08:39;36.55;;;13.65;;
11679;SDS011;5896;42.686;23.142;2024-03-02T08:11:05;32.03;;;12.93;;
11679;SDS011;5896;42.686;23.142;2024-03-02T08:13:31;30.75;;;11.25;;
11679;SDS011;5896;42.686;23.142;2024-03-02T08:15:56;29.85;;;12.50;;
11679;SDS011;5896;42.686;23.142;2024-03-02T08:18:22;29.60;;;11.07;;
11679;SDS011;5896;42.686;23.142;2024-03-02T08:20:47;29.10;;;10.88;;
11679;SDS011;5896;42.686;23.142;2024-03-02T08:23:13;33.53;;;10.60;;
11679;SDS011;5896;42.686;23.142;2024-03-02T08:25:38;30.23;;;10.30;;
11679;SDS011;5896;42.686;23.142;2024-03-02T08:28:03;22.17;;;9.00;;
11679;SDS011;5896;42.686;23.142;2024-03-02T08:30:29;21.98;;;8.40;;
11679;SDS011;5896;42.686;23.142;2024-03-02T08:32:55;22.17;;;8.10;;
11679;SDS011;5896;42.686;23.142;2024-03-02T08:35:20;21.77;;;9.48;;
11679;SDS011;5896;42.686;23.142;2024-03-02T08:37:47;29.67;;;11.20;;
11679;SDS011;5896;42.686;23.142;2024-03-02T08:40:13;29.60;;;11.55;;
11679;SDS011;5896;42.686;23.142;2024-03-02T08:42:38;28.33;;;12.30;;
11679;SDS011;5896;42.686;23.142;2024-03-02T08:45:04;31.55;;;12.50;;
11679;SDS011;5896;42.686;23.142;2024-03-02T08:47:30;27.02;;;11.90;;
11679;SDS011;5896;42.686;23.142;2024-03-02T08:49:56;32.65;;;12.05;;
11679;SDS011;5896;42.686;23.142;2024-03-02T08:52:21;27.75;;;10.55;;
11679;SDS011;5896;42.686;23.142;2024-03-02T08:54:47;23.35;;;10.75;;
11679;SDS011;5896;42.686;23.142;2024-03-02T08:57:12;23.60;;;9.02;;
11679;SDS011;5896;42.686;23.142;2024-03-02T08:59:37;24.88;;;9.38;;
11679;SDS011;5896;42.686;23.142;2024-03-02T09:02:03;22.55;;;9.80;;
11679;SDS011;5896;42.686;23.142;2024-03-02T09:04:29;29.90;;;12.15;;
11679;SDS011;5896;42.686;23.142;2024-03-02T09:06:54;30.83;;;12.27;;
11679;SDS011;5896;42.686;23.142;2024-03-02T09:09:20;29.35;;;11.90;;
11679;SDS011;5896;42.686;23.142;2024-03-02T09:11:46;26.75;;;11.80;;
11679;SDS011;5896;42.686;23.142;2024-03-02T09:14:11;31.05;;;12.63;;
11679;SDS011;5896;42.686;23.142;2024-03-02T09:16:37;29.27;;;12.50;;
11679;SDS011;5896;42.686;23.142;2024-03-02T09:19:03;29.73;;;12.25;;
11679;SDS011;5896;42.686;23.142;2024-03-02T09:21:28;28.60;;;12.60;;
11679;SDS011;5896;42.686;23.142;2024-03-02T09:23:55;29.55;;;11.82;;
11679;SDS011;5896;42.686;23.142;2024-03-02T09:26:21;31.42;;;12.77;;
11679;SDS011;5896;42.686;23.142;2024-03-02T09:28:47;33.38;;;11.85;;
11679;SDS011;5896;42.686;23.142;2024-03-02T09:31:13;34.28;;;13.40;;
11679;SDS011;5896;42.686;23.142;2024-03-02T09:33:38;38.42;;;13.68;;
11679;SDS011;5896;42.686;23.142;2024-03-02T09:36:16;35.85;;;13.48;;
11679;SDS011;5896;42.686;23.142;2024-03-02T09:38:42;37.90;;;13.48;;
11679;SDS011;5896;42.686;23.142;2024-03-02T09:41:08;35.80;;;13.23;;
11679;SDS011;5896;42.686;23.142;2024-03-02T09:43:33;33.88;;;11.90;;
11679;SDS011;5896;42.686;23.142;2024-03-02T09:45:59;30.92;;;11.82;;
11679;SDS011;5896;42.686;23.142;2024-03-02T09:48:24;31.40;;;11.82;;
11679;SDS011;5896;42.686;23.142;2024-03-02T09:50:50;32.70;;;12.25;;
11679;SDS011;5896;42.686;23.142;2024-03-02T09:53:15;33.60;;;11.80;;
11679;SDS011;5896;42.686;23.142;2024-03-02T09:55:45;25.17;;;11.20;;
11679;SDS011;5896;42.686;23.142;2024-03-02T09:58:11;34.05;;;13.57;;
11679;SDS011;5896;42.686;23.142;2024-03-02T10:00:37;31.48;;;13.15;;
11679;SDS011;5896;42.686;23.142;2024-03-02T10:03:02;33.72;;;13.25;;
11679;SDS011;5896;42.686;23.142;2024-03-02T10:05:29;34.85;;;13.35;;
11679;SDS011;5896;42.686;23.142;2024-03-02T10:07:58;38.95;;;14.55;;
11679;SDS011;5896;42.686;23.142;2024-03-02T10:10:26;41.20;;;15.48;;
11679;SDS011;5896;42.686;23.142;2024-03-02T10:13:06;36.30;;;12.80;;
11679;SDS011;5896;42.686;23.142;2024-03-02T10:15:32;36.92;;;12.93;;
11679;SDS011;5896;42.686;23.142;2024-03-02T10:17:58;31.70;;;13.02;;
11679;SDS011;5896;42.686;23.142;2024-03-02T10:20:24;38.63;;;14.77;;
11679;SDS011;5896;42.686;23.142;2024-03-02T10:22:51;38.28;;;14.68;;
11679;SDS011;5896;42.686;23.142;2024-03-02T10:25:29;30.38;;;11.57;;
11679;SDS011;5896;42.686;23.142;2024-03-02T10:27:59;34.30;;;11.43;;
11679;SDS011;5896;42.686;23.142;2024-03-02T10:30:28;30.30;;;11.93;;
11679;SDS011;5896;42.686;23.142;2024-03-02T10:32:54;32.17;;;10.98;;
11679;SDS011;5896;42.686;23.142;2024-03-02T10:35:21;35.45;;;11.75;;
11679;SDS011;5896;42.686;23.142;2024-03-02T10:37:48;29.45;;;12.30;;
11679;SDS011;5896;42.686;23.142;2024-03-02T10:40:14;28.45;;;11.38;;
11679;SDS011;5896;42.686;23.142;2024-03-02T10:42:40;24.95;;;9.40;;
11679;SDS011;5896;42.686;23.142;2024-03-02T10:45:07;26.02;;;11.23;;
11679;SDS011;5896;42.686;23.142;2024-03-02T10:47:35;31.10;;;11.93;;
11679;SDS011;5896;42.686;23.142;2024-03-02T10:50:02;31.83;;;11.32;;
11679;SDS011;5896;42.686;23.142;2024-03-02T10:52:31;28.55;;;11.50;;
11679;SDS011;5896;42.686;23.142;2024-03-02T10:54:56;31.35;;;13.68;;
11679;SDS011;5896;42.686;23.142;2024-03-02T10:57:22;34.35;;;11.43;;
11679;SDS011;5896;42.686;23.142;2024-03-02T10:59:52;25.25;;;11.60;;
11679;SDS011;5896;42.686;23.142;2024-03-02T11:02:21;28.67;;;12.00;;
11679;SDS011;5896;42.686;23.142;2024-03-02T11:04:49;24.00;;;9.73;;
11679;SDS011;5896;42.686;23.142;2024-03-02T11:07:16;24.95;;;10.30;;
11679;SDS011;5896;42.686;23.142;2024-03-02T11:09:49;28.90;;;11.40;;
11679;SDS011;5896;42.686;23.142;2024-03-02T11:12:28;27.38;;;12.55;;
11679;SDS011;5896;42.686;23.142;2024-03-02T11:14:56;26.23;;;10.10;;
11679;SDS011;5896;42.686;23.142;2024-03-02T11:17:22;26.98;;;11.63;;
11679;SDS011;5896;42.686;23.142;2024-03-02T11:19:48;28.15;;;11.55;;
11679;SDS011;5896;42.686;23.142;2024-03-02T11:22:15;26.30;;;11.00;;
11679;SDS011;5896;42.686;23.142;2024-03-02T11:24:48;28.52;;;12.50;;
11679;SDS011;5896;42.686;23.142;2024-03-02T11:27:14;30.60;;;12.55;;
11679;SDS011;5896;42.686;23.142;2024-03-02T11:32:22;27.52;;;11.77;;
11679;SDS011;5896;42.686;23.142;2024-03-02T11:34:50;34.90;;;12.65;;
11679;SDS011;5896;42.686;23.142;2024-03-02T11:37:16;28.05;;;12.30;;
11679;SDS011;5896;42.686;23.142;2024-03-02T11:39:47;27.20;;;11.85;;
11679;SDS011;5896;42.686;23.142;2024-03-02T11:42:14;28.75;;;10.90;;
11679;SDS011;5896;42.686;23.142;2024-03-02T11:44:46;28.70;;;12.48;;
11679;SDS011;5896;42.686;23.142;2024-03-02T11:47:14;22.70;;;10.75;;
11679;SDS011;5896;42.686;23.142;2024-03-02T11:49:44;24.08;;;9.55;;
11679;SDS011;5896;42.686;23.142;2024-03-02T11:52:15;21.50;;;9.90;;
11679;SDS011;5896;42.686;23.142;2024-03-02T11:54:42;23.90;;;10.35;;
11679;SDS011;5896;42.686;23.142;2024-03-02T11:57:15;24.98;;;10.23;;
11679;SDS011;5896;42.686;23.142;2024-03-02T11:59:42;22.38;;;9.35;;
11679;SDS011;5896;42.686;23.142;2024-03-02T12:02:12;21.95;;;10.02;;
11679;SDS011;5896;42.686;23.142;2024-03-02T12:04:40;22.15;;;10.15;;
11679;SDS011;5896;42.686;23.142;2024-03-02T12:07:05;22.10;;;10.23;;
11679;SDS011;5896;42.686;23.142;2024-03-02T12:09:31;21.65;;;9.43;;
11679;SDS011;5896;42.686;23.142;2024-03-02T12:14:29;21.63;;;10.27;;
11679;SDS011;5896;42.686;23.142;2024-03-02T12:16:55;21.73;;;8.55;;
11679;SDS011;5896;42.686;23.142;2024-03-02T12:19:21;22.13;;;8.93;;
11679;SDS011;5896;42.686;23.142;2024-03-02T12:21:46;18.30;;;9.40;;
11679;SDS011;5896;42.686;23.142;2024-03-02T12:24:12;23.45;;;9.30;;
11679;SDS011;5896;42.686;23.142;2024-03-02T12:26:37;24.85;;;10.45;;
11679;SDS011;5896;42.686;23.142;2024-03-02T12:29:03;26.95;;;11.02;;
11679;SDS011;5896;42.686;23.142;2024-03-02T12:31:28;23.48;;;10.90;;
11679;SDS011;5896;42.686;23.142;2024-03-02T12:33:54;24.10;;;10.18;;
11679;SDS011;5896;42.686;23.142;2024-03-02T12:36:20;26.33;;;11.43;;
11679;SDS011;5896;42.686;23.142;2024-03-02T12:38:45;25.90;;;10.68;;
11679;SDS011;5896;42.686;23.142;2024-03-02T12:41:14;20.88;;;10.07;;
11679;SDS011;5896;42.686;23.142;2024-03-02T12:43:40;24.20;;;9.93;;
11679;SDS011;5896;42.686;23.142;2024-03-02T12:46:06;31.27;;;10.90;;
11679;SDS011;5896;42.686;23.142;2024-03-02T12:48:31;26.10;;;11.50;;
11679;SDS011;5896;42.686;23.142;2024-03-02T12:50:57;25.92;;;10.98;;
11679;SDS011;5896;42.686;23.142;2024-03-02T12:53:22;23.92;;;9.85;;
11679;SDS011;5896;42.686;23.142;2024-03-02T12:55:48;25.58;;;11.43;;
11679;SDS011;5896;42.686;23.142;2024-03-02T12:58:20;26.15;;;10.13;;
11679;SDS011;5896;42.686;23.142;2024-03-02T13:00:47;24.05;;;10.57;;
11679;SDS011;5896;42.686;23.142;2024-03-02T13:03:13;24.63;;;11.50;;
11679;SDS011;5896;42.686;23.142;2024-03-02T13:05:39;28.83;;;10.98;;
11679;SDS011;5896;42.686;23.142;2024-03-02T13:08:05;27.63;;;11.25;;
11679;SDS011;5896;42.686;23.142;2024-03-02T13:10:32;28.80;;;10.38;;
11679;SDS011;5896;42.686;23.142;2024-03-02T13:12:58;29.42;;;12.93;;
11679;SDS011;5896;42.686;23.142;2024-03-02T13:15:23;26.48;;;11.68;;
11679;SDS011;5896;42.686;23.142;2024-03-02T13:17:48;24.85;;;10.70;;
11679;SDS011;5896;42.686;23.142;2024-03-02T13:20:15;27.42;;;11.93;;
11679;SDS011;5896;42.686;23.142;2024-03-02T13:22:43;21.95;;;10.52;;
11679;SDS011;5896;42.686;23.142;2024-03-02T13:25:09;23.23;;;10.65;;
11679;SDS011;5896;42.686;23.142;2024-03-02T13:27:35;30.15;;;10.75;;
11679;SDS011;5896;42.686;23.142;2024-03-02T13:30:01;28.48;;;11.93;;
11679;SDS011;5896;42.686;23.142;2024-03-02T13:32:33;27.05;;;11.73;;
11679;SDS011;5896;42.686;23.142;2024-03-02T13:34:59;33.35;;;12.20;;
11679;SDS011;5896;42.686;23.142;2024-03-02T13:37:25;27.70;;;11.50;;
11679;SDS011;5896;42.686;23.142;2024-03-02T13:39:50;25.77;;;11.23;;
11679;SDS011;5896;42.686;23.142;2024-03-02T13:42:15;26.35;;;11.13;;
11679;SDS011;5896;42.686;23.142;2024-03-02T13:44:44;27.58;;;12.18;;
11679;SDS011;5896;42.686;23.142;2024-03-02T13:47:14;29.23;;;11.82;;
11679;SDS011;5896;42.686;23.142;2024-03-02T13:49:40;29.05;;;13.30;;
11679;SDS011;5896;42.686;23.142;2024-03-02T13:52:09;30.38;;;12.30;;
11679;SDS011;5896;42.686;23.142;2024-03-02T13:54:38;26.77;;;10.68;;
11679;SDS011;5896;42.686;23.142;2024-03-02T13:57:07;26.55;;;12.38;;
11679;SDS011;5896;42.686;23.142;2024-03-02T13:59:33;30.55;;;13.38;;
11679;SDS011;5896;42.686;23.142;2024-03-02T14:02:00;33.45;;;13.00;;
11679;SDS011;5896;42.686;23.142;2024-03-02T14:04:26;25.60;;;11.32;;
11679;SDS011;5896;42.686;23.142;2024-03-02T14:06:52;32.42;;;12.73;;
11679;SDS011;5896;42.686;23.142;2024-03-02T14:09:18;28.02;;;11.13;;
11679;SDS011;5896;42.686;23.142;2024-03-02T14:11:45;30.15;;;11.70;;
11679;SDS011;5896;42.686;23.142;2024-03-02T14:14:11;24.08;;;11.05;;
11679;SDS011;5896;42.686;23.142;2024-03-02T14:16:36;28.70;;;12.98;;
11679;SDS011;5896;42.686;23.142;2024-03-02T14:19:02;25.30;;;11.52;;
11679;SDS011;5896;42.686;23.142;2024-03-02T14:21:29;27.80;;;12.27;;
11679;SDS011;5896;42.686;23.142;2024-03-02T14:23:55;31.05;;;13.02;;
11679;SDS011;5896;42.686;23.142;2024-03-02T14:26:20;35.05;;;13.98;;
11679;SDS011;5896;42.686;23.142;2024-03-02T14:28:46;25.58;;;11.88;;